Bagdad, Florida
Current Conditions -  °F | °C
As of 9:56 PM on Friday 24 Oct 2014 (Local Time) from KNDZ Reporting Station
Clear Clear  
Wind Chill: 13°   Ceiling: Unl
Heat Index: 13°   Visibility: 10mi
Dew Point:   Wind: 6mph
Humidity: 72%   Direction: 340°NNW
Pressure: 30.06"   Gusts: NA
Location:  30.6°N, 87.04°W
Report Text: KNDZ 250256Z 34005KT 10SM CLR 13/08 A3006 RMK AO2 SLP166 T01280078 51013 $
Loading
Personal Weather Stations






























Interactive Weather Map
Tropical Storm Tracking
New forecast layout! Learn more

10-Day Weather Forecast

Advertisements
Track Severe Weather on mobile